Nanping, China
Current Conditions -  °F | °C
As of 10:00 AM on Sunday 26 Oct 2014 (Local Time) from ZSFZ Reporting Station
Few Clouds Few Clouds  
Wind Chill: 79°   Ceiling: Unl
Heat Index: 80°   Visibility: 6mi
Dew Point: 61°   Wind: 2mph
Humidity: 54%   Direction: NA
Pressure: 30.09"   Gusts: NA
Location:  26.63°N, 118.17°E
Report Text: ZSFZ 260200Z VRB01MPS 9999 FEW033 26/16 Q1019 NOSIG
Loading
Personal Weather Stations






























Interactive Weather Map
Tropical Storm Tracking
New forecast layout! Learn more

10-Day Weather Forecast

Advertisements
Track Severe Weather on mobile